createdAt,value
2018-05-14T00:00:27.045Z,14.10
2018-05-14T00:03:00.916Z,14.00
2018-05-14T00:05:34.523Z,14.00
2018-05-14T00:08:08.216Z,14.10
2018-05-14T00:10:43.552Z,14.10
2018-05-14T00:13:17.351Z,14.20
2018-05-14T00:15:51.168Z,14.20
2018-05-14T00:18:25.000Z,14.20
2018-05-14T00:20:58.842Z,14.20
2018-05-14T00:23:32.649Z,14.20
2018-05-14T00:26:06.468Z,14.20
2018-05-14T00:28:40.836Z,14.20
2018-05-14T00:31:14.561Z,14.20
2018-05-14T00:33:48.374Z,14.20
2018-05-14T00:36:22.158Z,14.30
2018-05-14T00:38:56.725Z,14.40
2018-05-14T00:41:30.435Z,14.40
2018-05-14T00:44:04.088Z,14.40
2018-05-14T00:46:37.868Z,14.40
2018-05-14T00:49:11.668Z,14.40
2018-05-14T00:51:45.427Z,14.40
2018-05-14T00:54:20.001Z,14.30
2018-05-14T00:56:53.617Z,14.30
2018-05-14T00:59:28.202Z,14.30
2018-05-14T01:02:01.928Z,14.30
2018-05-14T01:04:35.704Z,14.30
2018-05-14T01:07:09.789Z,14.40
2018-05-14T01:09:43.665Z,14.30
2018-05-14T01:12:18.239Z,14.10
2018-05-14T01:14:51.869Z,14.10
2018-05-14T01:17:25.588Z,14.10
2018-05-14T01:19:59.454Z,14.10
2018-05-14T01:22:33.294Z,14.10
2018-05-14T01:25:07.100Z,14.10
2018-05-14T01:27:40.906Z,14.10
2018-05-14T01:30:14.680Z,14.20
2018-05-14T01:32:48.488Z,14.20
2018-05-14T01:35:22.256Z,14.10
2018-05-14T01:37:55.984Z,14.00
2018-05-14T01:40:29.785Z,14.00
2018-05-14T01:43:04.434Z,14.00
2018-05-14T01:45:38.263Z,14.00
2018-05-14T01:48:11.917Z,14.00
2018-05-14T01:50:46.464Z,14.00
2018-05-14T01:53:20.145Z,14.00
2018-05-14T01:55:54.003Z,13.90
2018-05-14T01:58:29.584Z,14.00
2018-05-14T02:01:03.312Z,13.90
2018-05-14T02:03:36.954Z,14.00
2018-05-14T02:06:11.463Z,14.00
2018-05-14T02:08:46.093Z,14.10
2018-05-14T02:11:20.584Z,14.10
2018-05-14T02:13:54.431Z,14.00
2018-05-14T02:16:28.181Z,14.10
2018-05-14T02:19:02.060Z,14.10
2018-05-14T02:21:35.712Z,14.00
2018-05-14T02:24:10.243Z,14.00
2018-05-14T02:26:44.065Z,14.00
2018-05-14T02:29:18.445Z,14.00
2018-05-14T02:31:52.788Z,13.90
2018-05-14T02:34:26.631Z,13.90
2018-05-14T02:37:00.276Z,13.90
2018-05-14T02:39:34.015Z,14.00
2018-05-14T02:42:08.436Z,14.00
2018-05-14T02:44:42.204Z,14.00
2018-05-14T02:47:16.786Z,13.90
2018-05-14T02:49:51.353Z,13.90
2018-05-14T02:52:25.919Z,13.90
2018-05-14T02:55:00.494Z,13.80
2018-05-14T02:57:34.254Z,13.80
2018-05-14T03:00:08.075Z,13.80
2018-05-14T03:02:41.949Z,13.70
2018-05-14T03:05:16.577Z,13.80
2018-05-14T03:07:50.306Z,13.80
2018-05-14T03:10:24.121Z,13.80
2018-05-14T03:12:57.879Z,13.90
2018-05-14T03:15:31.588Z,13.90
2018-05-14T03:18:06.124Z,13.90
2018-05-14T03:20:39.834Z,13.90
2018-05-14T03:23:13.660Z,13.90
2018-05-14T03:25:47.452Z,13.80
2018-05-14T03:28:21.236Z,13.80
2018-05-14T03:30:55.728Z,13.70
2018-05-14T03:33:29.333Z,13.70
2018-05-14T03:36:03.202Z,13.60
2018-05-14T03:38:36.883Z,13.60
2018-05-14T03:41:11.472Z,13.70
2018-05-14T03:43:46.053Z,13.70
2018-05-14T03:46:19.697Z,13.70
2018-05-14T03:48:53.458Z,13.70
2018-05-14T03:51:27.109Z,13.70
2018-05-14T03:54:00.969Z,13.70
2018-05-14T03:56:35.547Z,13.70
2018-05-14T03:59:21.371Z,13.70
2018-05-14T04:15:23.958Z,13.70
2018-05-14T04:17:57.572Z,13.70
2018-05-14T04:20:31.944Z,13.60
2018-05-14T04:23:05.815Z,13.60
2018-05-14T04:25:40.264Z,13.70
2018-05-14T04:28:14.142Z,13.70
2018-05-14T04:30:47.889Z,13.70
2018-05-14T04:33:21.568Z,13.70
2018-05-14T04:35:55.212Z,13.70
2018-05-14T04:38:29.013Z,13.70
2018-05-14T04:41:03.625Z,13.70
2018-05-14T04:43:37.472Z,13.70
2018-05-14T04:46:11.880Z,13.70
2018-05-14T04:48:45.601Z,13.70
2018-05-14T04:51:19.457Z,13.80
2018-05-14T04:53:53.171Z,13.80
2018-05-14T04:56:27.054Z,13.70
2018-05-14T04:59:00.842Z,13.70
2018-05-14T05:01:35.745Z,13.70
2018-05-14T05:04:10.237Z,13.70
2018-05-14T05:06:44.200Z,13.70
2018-05-14T05:09:17.936Z,13.80
2018-05-14T05:11:52.580Z,13.80
2018-05-14T05:14:26.220Z,13.80
2018-05-14T05:17:00.158Z,13.80
2018-05-14T05:19:34.711Z,13.80
2018-05-14T05:22:08.463Z,13.70
2018-05-14T05:24:42.538Z,13.70
2018-05-14T05:27:16.163Z,13.70
2018-05-14T05:29:49.838Z,13.80
2018-05-14T05:32:24.340Z,13.90
2018-05-14T05:34:58.184Z,13.90
2018-05-14T05:37:32.091Z,14.10
2018-05-14T05:40:05.930Z,14.10
2018-05-14T05:42:40.394Z,14.00
2018-05-14T05:45:14.299Z,14.00
2018-05-14T05:47:48.082Z,13.90
2018-05-14T05:50:22.639Z,13.90
2018-05-14T05:52:56.446Z,13.80
2018-05-14T05:55:30.225Z,13.90
2018-05-14T05:58:04.742Z,13.90
2018-05-14T06:00:38.511Z,13.90
2018-05-14T06:03:12.183Z,13.90
2018-05-14T06:05:46.062Z,13.90
2018-05-14T06:08:19.768Z,14.00
2018-05-14T06:10:53.544Z,14.10
2018-05-14T06:13:27.386Z,14.00
2018-05-14T06:16:01.928Z,14.10
2018-05-14T06:18:35.706Z,14.10
2018-05-14T06:21:09.458Z,14.10
2018-05-14T06:23:43.192Z,14.10
2018-05-14T06:26:16.837Z,14.00
2018-05-14T06:28:50.632Z,14.00
2018-05-14T06:31:24.465Z,14.10
2018-05-14T06:33:58.345Z,14.20
2018-05-14T06:36:32.029Z,14.20
2018-05-14T06:39:05.854Z,14.20
2018-05-14T06:41:39.721Z,14.20
2018-05-14T06:44:14.273Z,14.20
2018-05-14T06:46:48.219Z,14.10
2018-05-14T06:49:21.785Z,14.20
2018-05-14T06:51:56.155Z,14.40
2018-05-14T06:54:30.662Z,14.30
2018-05-14T06:57:04.444Z,14.30
2018-05-14T06:59:38.179Z,14.30
2018-05-14T07:02:11.924Z,14.30
2018-05-14T07:04:45.696Z,14.40
2018-05-14T07:07:19.459Z,14.50
2018-05-14T07:09:53.992Z,14.50
2018-05-14T10:58:05.859Z,15.80
2018-05-14T11:00:39.580Z,15.70
2018-05-14T11:03:14.054Z,15.60
2018-05-14T11:05:47.857Z,15.60
2018-05-14T11:08:21.683Z,15.60
2018-05-14T11:10:55.604Z,15.60
2018-05-14T11:13:29.545Z,15.60
2018-05-14T11:16:04.695Z,15.60
2018-05-14T11:18:38.625Z,15.60
2018-05-14T11:21:12.406Z,15.60
2018-05-14T11:23:46.280Z,15.60
2018-05-14T11:26:19.998Z,15.70
2018-05-14T11:28:53.772Z,15.60
2018-05-14T11:31:27.627Z,15.70
2018-05-14T11:34:02.180Z,15.80
2018-05-14T11:36:35.886Z,15.80
2018-05-14T11:39:09.637Z,15.80
2018-05-14T11:41:44.223Z,16.00
2018-05-14T11:44:17.873Z,15.90
2018-05-14T11:46:51.520Z,16.00
2018-05-14T11:49:25.126Z,16.10
2018-05-14T11:52:02.212Z,16.10
2018-05-14T11:54:35.935Z,16.10
2018-05-14T11:57:09.680Z,16.20
2018-05-14T11:59:43.500Z,16.30
2018-05-14T12:02:18.952Z,16.40
2018-05-14T12:04:52.744Z,16.40
2018-05-14T12:07:26.513Z,16.40
2018-05-14T12:10:01.153Z,16.40
2018-05-14T12:12:34.820Z,16.40
2018-05-14T12:15:08.595Z,16.40
2018-05-14T12:17:42.452Z,16.30
2018-05-14T12:20:16.240Z,16.30
2018-05-14T12:22:50.027Z,16.30
2018-05-14T12:25:23.832Z,16.20
2018-05-14T12:27:57.625Z,16.10
2018-05-14T12:30:35.983Z,16.10
2018-05-14T12:33:09.981Z,16.20
2018-05-14T12:35:44.603Z,16.10
2018-05-14T12:38:21.271Z,16.20
2018-05-14T12:40:54.948Z,16.20
2018-05-14T12:43:28.796Z,16.20
2018-05-14T12:46:02.668Z,16.30
2018-05-14T12:48:37.159Z,16.40
2018-05-14T12:51:13.057Z,16.40
2018-05-14T12:53:47.544Z,16.60
2018-05-14T12:56:21.400Z,16.50
2018-05-14T12:58:55.152Z,16.70
2018-05-14T13:01:29.752Z,16.80
2018-05-14T13:04:04.217Z,17.00
2018-05-14T13:06:37.925Z,17.00
2018-05-14T13:09:11.732Z,17.20
2018-05-14T13:11:45.526Z,17.20
2018-05-14T13:14:19.267Z,17.10
2018-05-14T13:16:53.813Z,17.00
2018-05-14T13:19:27.533Z,17.00
2018-05-14T13:22:01.401Z,16.90
2018-05-14T13:24:35.176Z,17.00
2018-05-14T13:27:09.004Z,17.00
2018-05-14T13:29:43.854Z,16.90
2018-05-14T13:32:17.687Z,16.90
2018-05-14T13:34:51.450Z,16.80
2018-05-14T13:37:25.324Z,16.90
2018-05-14T13:39:59.817Z,16.90
2018-05-14T13:42:33.510Z,16.90
2018-05-14T13:45:07.313Z,16.90
2018-05-14T13:47:41.093Z,16.90
2018-05-14T13:50:14.859Z,16.90
2018-05-14T13:52:48.895Z,16.90
2018-05-14T13:55:23.552Z,16.90
2018-05-14T13:57:57.261Z,16.80
2018-05-14T14:00:31.098Z,16.90
2018-05-14T14:03:05.638Z,16.90
2018-05-14T14:05:40.305Z,16.90
2018-05-14T14:08:14.711Z,16.90
2018-05-14T14:10:48.353Z,16.90
2018-05-14T14:13:22.199Z,16.90
2018-05-14T14:15:56.083Z,16.90
2018-05-14T14:18:29.752Z,17.00
2018-05-14T14:21:03.488Z,17.00
2018-05-14T14:23:37.436Z,16.90
2018-05-14T14:26:11.260Z,17.00
2018-05-14T14:28:44.948Z,17.00
2018-05-14T14:31:18.716Z,16.90
2018-05-14T14:33:52.673Z,16.90
2018-05-14T14:36:26.492Z,16.90
2018-05-14T14:39:00.901Z,16.80
2018-05-14T14:41:34.558Z,16.80
2018-05-14T14:44:08.452Z,16.80
2018-05-14T14:46:43.048Z,16.90
2018-05-14T14:49:16.687Z,16.90
2018-05-14T14:51:51.250Z,17.00
2018-05-14T14:54:25.023Z,17.00
2018-05-14T14:56:58.781Z,17.10
2018-05-14T14:59:32.525Z,17.10
2018-05-14T15:02:07.059Z,17.10
2018-05-14T15:04:40.784Z,17.10
2018-05-14T15:07:14.482Z,17.10
2018-05-14T15:09:49.045Z,17.10
2018-05-14T15:12:22.869Z,17.10
2018-05-14T15:14:56.733Z,17.20
2018-05-14T15:17:30.659Z,17.10
2018-05-14T15:20:05.102Z,17.10
2018-05-14T15:22:39.057Z,17.00
2018-05-14T15:25:12.862Z,17.10
2018-05-14T15:27:46.534Z,17.00
2018-05-14T15:30:20.270Z,17.00
2018-05-14T15:32:54.046Z,16.90
2018-05-14T15:35:27.830Z,16.80
2018-05-14T15:38:02.359Z,16.70
2018-05-14T15:40:36.101Z,16.70
2018-05-14T15:43:14.141Z,16.70
2018-05-14T15:45:47.828Z,16.60
2018-05-14T15:48:22.360Z,16.60
2018-05-14T15:50:56.245Z,16.60
2018-05-14T15:53:30.025Z,16.60
2018-05-14T15:56:03.809Z,16.60
2018-05-14T15:58:37.532Z,16.50
2018-05-14T16:01:11.287Z,16.50
2018-05-14T16:03:45.153Z,16.50
2018-05-14T16:06:19.552Z,16.50
2018-05-14T16:08:54.128Z,16.40
2018-05-14T16:11:27.760Z,16.40
2018-05-14T16:14:01.445Z,16.40
2018-05-14T16:16:36.089Z,16.30
2018-05-14T16:19:09.864Z,16.30
2018-05-14T16:21:43.667Z,16.30
2018-05-14T16:24:17.421Z,16.20
2018-05-14T16:26:51.148Z,16.10
2018-05-14T16:29:24.984Z,16.10
2018-05-14T16:31:58.792Z,16.00
2018-05-14T16:34:32.545Z,15.90
2018-05-14T16:37:07.161Z,15.90
2018-05-14T16:39:40.822Z,15.90
2018-05-14T16:42:15.349Z,15.90
2018-05-14T16:44:49.100Z,15.90
2018-05-14T16:47:23.708Z,16.00
2018-05-14T16:49:57.605Z,16.00
2018-05-14T16:52:32.134Z,16.00
2018-05-14T16:55:06.061Z,16.00
2018-05-14T16:57:40.561Z,16.10
2018-05-14T17:00:14.263Z,16.10
2018-05-14T17:02:48.778Z,16.20
2018-05-14T17:05:22.509Z,16.20
2018-05-14T17:07:56.376Z,16.20
2018-05-14T17:10:30.189Z,16.30
2018-05-14T17:13:04.610Z,16.20
2018-05-14T17:15:38.375Z,16.20
2018-05-14T17:18:12.147Z,16.20
2018-05-14T17:20:45.805Z,16.30
2018-05-14T17:23:19.587Z,16.20
2018-05-14T17:25:53.440Z,16.10
2018-05-14T17:28:27.197Z,16.20
2018-05-14T17:31:00.993Z,16.20
2018-05-14T17:33:35.621Z,16.20
2018-05-14T17:36:09.272Z,16.10
2018-05-14T17:38:43.214Z,16.10
2018-05-14T17:41:17.716Z,16.10
2018-05-14T17:43:51.460Z,16.00
2018-05-14T17:46:25.978Z,16.10
2018-05-14T17:48:59.752Z,16.00
2018-05-14T17:51:33.358Z,16.00
2018-05-14T17:54:07.168Z,16.10
2018-05-14T17:56:41.001Z,16.10
2018-05-14T17:59:15.467Z,16.10
2018-05-14T18:01:50.208Z,16.10
2018-05-14T18:04:24.041Z,16.10
2018-05-14T18:06:57.891Z,16.10
2018-05-14T18:09:31.697Z,16.10
2018-05-14T18:12:05.603Z,16.10
2018-05-14T18:14:39.312Z,16.10
2018-05-14T18:17:13.172Z,16.10
2018-05-14T18:19:52.653Z,16.10
2018-05-14T18:22:41.354Z,16.00
2018-05-14T18:25:20.588Z,15.90
2018-05-14T18:28:00.096Z,16.00
2018-05-14T18:30:38.882Z,16.00
2018-05-14T18:33:12.672Z,16.00
2018-05-14T18:35:51.035Z,16.00
2018-05-14T18:38:25.581Z,15.90
2018-05-14T18:40:59.282Z,15.80
2018-05-14T18:43:32.920Z,15.80
2018-05-14T18:46:07.438Z,15.70
2018-05-14T18:48:41.257Z,15.70
2018-05-14T18:51:14.946Z,15.60
2018-05-14T18:53:48.797Z,15.60
2018-05-14T18:56:23.357Z,15.70
2018-05-14T18:58:57.076Z,15.60
2018-05-14T19:01:31.690Z,15.60
2018-05-14T19:04:05.233Z,15.60
2018-05-14T19:06:39.076Z,15.60
2018-05-14T19:09:12.873Z,15.60
2018-05-14T19:11:51.581Z,15.60
2018-05-14T19:14:25.300Z,15.60
2018-05-14T19:17:04.899Z,15.50
2018-05-14T19:19:38.645Z,15.50
2018-05-14T19:22:18.201Z,15.50
2018-05-14T19:24:52.025Z,15.40
2018-05-14T19:27:25.827Z,15.40
2018-05-14T19:29:59.564Z,15.40
2018-05-14T19:32:33.412Z,15.30
2018-05-14T19:35:12.777Z,15.30
2018-05-14T19:37:46.641Z,15.30
2018-05-14T19:57:34.836Z,15.30
2018-05-14T20:00:09.438Z,15.40
2018-05-14T20:02:43.980Z,15.40
2018-05-14T20:05:17.592Z,15.40
2018-05-14T20:07:51.430Z,15.40
2018-05-14T20:10:25.903Z,15.50
2018-05-14T20:13:00.587Z,15.50
2018-05-14T20:15:35.118Z,15.50
2018-05-14T20:18:08.860Z,15.50
2018-05-14T20:20:42.663Z,15.60
2018-05-14T20:23:16.371Z,15.60
2018-05-14T20:25:50.173Z,15.50
2018-05-14T20:28:23.923Z,15.60
2018-05-14T20:30:58.436Z,15.50
2018-05-14T20:33:32.139Z,15.50
2018-05-14T20:36:06.020Z,15.50
2018-05-14T20:38:40.524Z,15.50
2018-05-14T20:41:14.420Z,15.40
2018-05-14T20:43:48.217Z,15.40
2018-05-14T20:46:22.004Z,15.40
2018-05-14T20:48:55.723Z,15.40
2018-05-14T20:51:29.496Z,15.40
2018-05-14T20:54:03.333Z,15.40
2018-05-14T20:56:37.062Z,15.40
2018-05-14T20:59:10.888Z,15.40
2018-05-14T21:01:44.636Z,15.30
2018-05-14T21:04:18.498Z,15.40
2018-05-14T21:06:53.004Z,15.30
2018-05-14T21:09:27.492Z,15.40
2018-05-14T21:12:01.336Z,15.40
2018-05-14T21:14:35.152Z,15.30
2018-05-14T21:17:08.977Z,15.30
2018-05-14T21:19:43.403Z,15.30
2018-05-14T21:22:17.795Z,15.20
2018-05-14T21:24:51.424Z,15.20
2018-05-14T21:27:25.189Z,15.20
2018-05-14T21:29:59.000Z,15.20
2018-05-14T21:32:33.559Z,15.10
2018-05-14T21:35:07.332Z,15.00
2018-05-14T21:37:41.222Z,15.00
2018-05-14T21:40:14.914Z,15.00
2018-05-14T21:42:49.400Z,15.00
2018-05-14T21:45:23.238Z,15.00
2018-05-14T21:47:58.608Z,15.00
2018-05-14T21:50:32.295Z,15.00
2018-05-14T21:53:06.062Z,15.00
2018-05-14T21:55:39.854Z,15.00
2018-05-14T21:58:14.489Z,15.20
2018-05-14T22:00:48.877Z,15.20
2018-05-14T22:03:22.476Z,15.20
2018-05-14T22:05:58.253Z,15.20
2018-05-14T22:08:31.935Z,15.20
2018-05-14T22:11:05.729Z,15.20
2018-05-14T22:13:39.540Z,15.20
2018-05-14T22:16:13.404Z,15.20
2018-05-14T22:18:48.003Z,15.10
2018-05-14T22:21:22.528Z,15.10
2018-05-14T22:23:57.024Z,15.10
2018-05-14T22:26:30.866Z,15.10
2018-05-14T22:29:04.655Z,15.10
2018-05-14T22:31:38.519Z,15.10
2018-05-14T22:34:12.257Z,15.10
2018-05-14T22:36:45.971Z,15.10
2018-05-14T22:39:19.804Z,15.10
2018-05-14T22:41:53.481Z,15.00
2018-05-14T22:44:27.310Z,15.00
2018-05-14T22:47:01.097Z,15.00
2018-05-14T22:49:35.588Z,14.90
2018-05-14T22:52:09.203Z,14.90
2018-05-14T22:54:42.973Z,14.90
2018-05-14T22:57:16.718Z,14.90
2018-05-14T22:59:51.226Z,14.90
2018-05-14T23:02:25.795Z,14.90
2018-05-14T23:04:59.625Z,14.90
2018-05-14T23:07:33.307Z,14.90
2018-05-14T23:10:07.039Z,14.90
2018-05-14T23:12:40.675Z,14.90
2018-05-14T23:15:14.503Z,14.80
2018-05-14T23:17:48.180Z,14.80
2018-05-14T23:20:22.701Z,14.90
2018-05-14T23:22:56.410Z,14.80
2018-05-14T23:25:30.142Z,14.80
2018-05-14T23:28:03.857Z,14.70
2018-05-14T23:30:38.436Z,14.80
2018-05-14T23:33:12.137Z,14.80
2018-05-14T23:35:46.000Z,14.70
2018-05-14T23:38:19.863Z,14.70
2018-05-14T23:40:53.713Z,14.70
2018-05-14T23:43:27.598Z,14.70
2018-05-14T23:46:02.024Z,14.60
2018-05-14T23:48:35.618Z,14.60
2018-05-14T23:51:09.496Z,14.50
2018-05-14T23:53:43.235Z,14.50
2018-05-14T23:56:17.058Z,14.60
2018-05-14T23:58:50.815Z,14.60
